sensor_id;sensor_type;location;lat;lon;timestamp;pressure;altitude;pressure_sealevel;temperature;humidity
19576;BME280;41589;51.196;7.074;2024-01-15T00:04:07;97629.50;;;2.91;80.82
19576;BME280;41589;51.196;7.074;2024-01-15T00:09:07;97625.25;;;2.99;81.35
19576;BME280;41589;51.196;7.074;2024-01-15T00:14:08;97620.34;;;3.03;81.34
19576;BME280;41589;51.196;7.074;2024-01-15T00:19:09;97623.47;;;3.05;81.20
19576;BME280;41589;51.196;7.074;2024-01-15T00:24:09;97624.88;;;3.10;81.35
19576;BME280;41589;51.196;7.074;2024-01-15T00:29:09;97610.56;;;3.11;80.56
19576;BME280;41589;51.196;7.074;2024-01-15T00:34:10;97618.44;;;3.13;80.74
19576;BME280;41589;51.196;7.074;2024-01-15T00:39:10;97608.34;;;3.06;80.71
19576;BME280;41589;51.196;7.074;2024-01-15T00:44:10;97604.44;;;3.04;81.57
19576;BME280;41589;51.196;7.074;2024-01-15T00:49:12;97592.75;;;3.09;81.25
19576;BME280;41589;51.196;7.074;2024-01-15T00:54:13;97590.75;;;3.09;80.72
19576;BME280;41589;51.196;7.074;2024-01-15T00:59:13;97588.88;;;3.06;81.83
19576;BME280;41589;51.196;7.074;2024-01-15T01:04:15;97595.06;;;3.10;81.27
19576;BME280;41589;51.196;7.074;2024-01-15T01:09:15;97595.53;;;3.09;81.94
19576;BME280;41589;51.196;7.074;2024-01-15T01:14:15;97580.28;;;3.13;81.90
19576;BME280;41589;51.196;7.074;2024-01-15T01:19:16;97585.84;;;3.13;81.63
19576;BME280;41589;51.196;7.074;2024-01-15T01:24:16;97590.50;;;3.16;81.54
19576;BME280;41589;51.196;7.074;2024-01-15T01:29:17;97570.28;;;3.16;82.06
19576;BME280;41589;51.196;7.074;2024-01-15T01:34:17;97573.38;;;3.18;81.91
19576;BME280;41589;51.196;7.074;2024-01-15T01:39:18;97579.72;;;3.18;82.13
19576;BME280;41589;51.196;7.074;2024-01-15T01:44:18;97586.72;;;3.23;81.80
19576;BME280;41589;51.196;7.074;2024-01-15T01:49:18;97584.25;;;3.25;81.97
19576;BME280;41589;51.196;7.074;2024-01-15T01:54:19;97572.81;;;3.23;81.91
19576;BME280;41589;51.196;7.074;2024-01-15T01:59:20;97578.00;;;3.34;82.01
19576;BME280;41589;51.196;7.074;2024-01-15T02:04:25;97578.09;;;3.30;81.82
19576;BME280;41589;51.196;7.074;2024-01-15T02:09:25;97583.34;;;3.28;81.86
19576;BME280;41589;51.196;7.074;2024-01-15T02:14:25;97590.34;;;3.33;81.98
19576;BME280;41589;51.196;7.074;2024-01-15T02:19:26;97580.00;;;3.33;82.59
19576;BME280;41589;51.196;7.074;2024-01-15T02:24:26;97593.00;;;3.36;82.29
19576;BME280;41589;51.196;7.074;2024-01-15T02:29:26;97574.31;;;3.37;82.24
19576;BME280;41589;51.196;7.074;2024-01-15T02:34:31;97589.97;;;3.43;82.54
19576;BME280;41589;51.196;7.074;2024-01-15T02:39:32;97586.28;;;3.46;82.01
19576;BME280;41589;51.196;7.074;2024-01-15T02:44:32;97582.84;;;3.42;82.04
19576;BME280;41589;51.196;7.074;2024-01-15T02:49:32;97574.91;;;3.54;81.94
19576;BME280;41589;51.196;7.074;2024-01-15T02:54:33;97583.50;;;3.46;82.49
19576;BME280;41589;51.196;7.074;2024-01-15T02:59:33;97590.22;;;3.58;81.75
19576;BME280;41589;51.196;7.074;2024-01-15T03:04:34;97575.75;;;3.63;82.43
19576;BME280;41589;51.196;7.074;2024-01-15T03:09:34;97585.66;;;3.64;81.96
19576;BME280;41589;51.196;7.074;2024-01-15T03:14:35;97588.88;;;3.63;82.24
19576;BME280;41589;51.196;7.074;2024-01-15T03:19:35;97592.81;;;3.53;81.79
19576;BME280;41589;51.196;7.074;2024-01-15T03:24:36;97593.78;;;3.59;82.05
19576;BME280;41589;51.196;7.074;2024-01-15T03:29:36;97586.81;;;3.54;82.21
19576;BME280;41589;51.196;7.074;2024-01-15T03:34:37;97588.69;;;3.57;82.58
19576;BME280;41589;51.196;7.074;2024-01-15T03:39:37;97578.31;;;3.58;81.77
19576;BME280;41589;51.196;7.074;2024-01-15T03:44:37;97578.63;;;3.60;82.45
19576;BME280;41589;51.196;7.074;2024-01-15T03:49:37;97576.19;;;3.62;81.97
19576;BME280;41589;51.196;7.074;2024-01-15T03:54:38;97584.34;;;3.56;81.61
19576;BME280;41589;51.196;7.074;2024-01-15T03:59:40;97573.22;;;3.56;81.87
19576;BME280;41589;51.196;7.074;2024-01-15T04:04:42;97567.66;;;3.56;82.11
19576;BME280;41589;51.196;7.074;2024-01-15T04:09:43;97549.72;;;3.57;82.11
19576;BME280;41589;51.196;7.074;2024-01-15T04:14:43;97549.78;;;3.44;82.22
19576;BME280;41589;51.196;7.074;2024-01-15T04:19:44;97545.19;;;3.50;82.83
19576;BME280;41589;51.196;7.074;2024-01-15T04:24:44;97550.97;;;3.56;82.37
19576;BME280;41589;51.196;7.074;2024-01-15T04:29:44;97542.47;;;3.60;82.07
19576;BME280;41589;51.196;7.074;2024-01-15T04:34:45;97532.88;;;3.61;82.15
19576;BME280;41589;51.196;7.074;2024-01-15T04:39:45;97529.41;;;3.47;81.14
19576;BME280;41589;51.196;7.074;2024-01-15T04:44:46;97519.97;;;3.45;82.48
19576;BME280;41589;51.196;7.074;2024-01-15T04:49:46;97528.03;;;3.52;83.07
19576;BME280;41589;51.196;7.074;2024-01-15T04:54:46;97520.03;;;3.54;81.77
19576;BME280;41589;51.196;7.074;2024-01-15T04:59:47;97522.16;;;3.50;82.02
19576;BME280;41589;51.196;7.074;2024-01-15T05:04:47;97518.47;;;3.53;82.14
19576;BME280;41589;51.196;7.074;2024-01-15T05:09:47;97511.03;;;3.50;81.87
19576;BME280;41589;51.196;7.074;2024-01-15T05:14:48;97506.38;;;3.47;81.96
19576;BME280;41589;51.196;7.074;2024-01-15T05:19:48;97504.75;;;3.59;82.79
19576;BME280;41589;51.196;7.074;2024-01-15T05:24:48;97502.63;;;3.63;81.60
19576;BME280;41589;51.196;7.074;2024-01-15T05:29:49;97509.22;;;3.56;82.22
19576;BME280;41589;51.196;7.074;2024-01-15T05:34:49;97516.84;;;3.65;82.25
19576;BME280;41589;51.196;7.074;2024-01-15T05:39:49;97507.13;;;3.69;82.15
19576;BME280;41589;51.196;7.074;2024-01-15T05:44:49;97507.59;;;3.68;82.31
19576;BME280;41589;51.196;7.074;2024-01-15T05:49:50;97500.31;;;3.70;82.36
19576;BME280;41589;51.196;7.074;2024-01-15T05:54:50;97498.16;;;3.65;81.69
19576;BME280;41589;51.196;7.074;2024-01-15T05:59:50;97486.56;;;3.67;82.13
19576;BME280;41589;51.196;7.074;2024-01-15T06:04:51;97489.91;;;3.62;82.04
19576;BME280;41589;51.196;7.074;2024-01-15T06:09:51;97485.47;;;3.64;81.34
19576;BME280;41589;51.196;7.074;2024-01-15T06:14:51;97474.78;;;3.63;81.82
19576;BME280;41589;51.196;7.074;2024-01-15T06:19:52;97465.47;;;3.57;81.83
19576;BME280;41589;51.196;7.074;2024-01-15T06:24:52;97469.66;;;3.61;82.73
19576;BME280;41589;51.196;7.074;2024-01-15T06:29:53;97471.88;;;3.66;82.18
19576;BME280;41589;51.196;7.074;2024-01-15T06:34:53;97465.06;;;3.67;82.10
19576;BME280;41589;51.196;7.074;2024-01-15T06:39:54;97464.09;;;3.61;82.11
19576;BME280;41589;51.196;7.074;2024-01-15T06:44:54;97452.53;;;3.63;82.31
19576;BME280;41589;51.196;7.074;2024-01-15T06:49:54;97459.44;;;3.58;82.08
19576;BME280;41589;51.196;7.074;2024-01-15T06:54:55;97461.47;;;3.58;81.86
19576;BME280;41589;51.196;7.074;2024-01-15T06:59:55;97464.03;;;3.52;82.28
19576;BME280;41589;51.196;7.074;2024-01-15T07:04:56;97469.22;;;3.63;82.84
19576;BME280;41589;51.196;7.074;2024-01-15T07:09:56;97471.09;;;3.66;82.07
19576;BME280;41589;51.196;7.074;2024-01-15T07:14:56;97471.09;;;3.66;82.57
19576;BME280;41589;51.196;7.074;2024-01-15T07:19:57;97457.81;;;3.70;82.19
19576;BME280;41589;51.196;7.074;2024-01-15T07:24:57;97457.69;;;3.73;82.41
19576;BME280;41589;51.196;7.074;2024-01-15T07:29:57;97463.84;;;3.68;82.21
19576;BME280;41589;51.196;7.074;2024-01-15T07:34:58;97458.72;;;3.67;81.54
19576;BME280;41589;51.196;7.074;2024-01-15T07:39:59;97470.94;;;3.69;82.31
19576;BME280;41589;51.196;7.074;2024-01-15T07:45:00;97463.97;;;3.65;82.13
19576;BME280;41589;51.196;7.074;2024-01-15T07:50:01;97461.50;;;3.67;82.53
19576;BME280;41589;51.196;7.074;2024-01-15T07:55:01;97465.53;;;3.66;82.30
19576;BME280;41589;51.196;7.074;2024-01-15T08:00:04;97452.97;;;3.61;81.88
19576;BME280;41589;51.196;7.074;2024-01-15T08:05:06;97457.13;;;3.57;82.33
19576;BME280;41589;51.196;7.074;2024-01-15T08:10:06;97458.69;;;3.58;82.76
19576;BME280;41589;51.196;7.074;2024-01-15T08:15:06;97461.38;;;3.70;83.33
19576;BME280;41589;51.196;7.074;2024-01-15T08:20:07;97452.13;;;3.73;82.87
19576;BME280;41589;51.196;7.074;2024-01-15T08:25:08;97439.72;;;3.65;82.67
19576;BME280;41589;51.196;7.074;2024-01-15T08:30:09;97438.22;;;3.51;82.06
19576;BME280;41589;51.196;7.074;2024-01-15T08:35:11;97444.75;;;3.58;82.29
19576;BME280;41589;51.196;7.074;2024-01-15T08:40:11;97434.09;;;3.56;82.78
19576;BME280;41589;51.196;7.074;2024-01-15T08:45:11;97432.41;;;3.59;82.71
19576;BME280;41589;51.196;7.074;2024-01-15T08:50:12;97437.16;;;3.49;82.60
19576;BME280;41589;51.196;7.074;2024-01-15T08:55:12;97437.47;;;3.51;82.21
19576;BME280;41589;51.196;7.074;2024-01-15T09:00:13;97439.94;;;3.49;82.85
19576;BME280;41589;51.196;7.074;2024-01-15T09:05:14;97441.56;;;3.37;82.93
19576;BME280;41589;51.196;7.074;2024-01-15T09:10:14;97444.34;;;3.37;83.13
19576;BME280;41589;51.196;7.074;2024-01-15T09:15:15;97455.22;;;3.44;83.14
19576;BME280;41589;51.196;7.074;2024-01-15T09:20:15;97460.63;;;3.48;83.00
19576;BME280;41589;51.196;7.074;2024-01-15T09:25:16;97453.31;;;3.41;82.36
19576;BME280;41589;51.196;7.074;2024-01-15T09:30:16;97467.56;;;3.43;83.21
19576;BME280;41589;51.196;7.074;2024-01-15T09:35:16;97454.16;;;3.51;83.17
19576;BME280;41589;51.196;7.074;2024-01-15T09:40:17;97472.78;;;3.63;83.11
19576;BME280;41589;51.196;7.074;2024-01-15T09:45:20;97473.22;;;3.62;82.78
19576;BME280;41589;51.196;7.074;2024-01-15T09:50:20;97486.34;;;3.61;82.72
19576;BME280;41589;51.196;7.074;2024-01-15T09:55:21;97480.31;;;3.54;82.54
19576;BME280;41589;51.196;7.074;2024-01-15T10:00:22;97484.94;;;3.57;83.17
19576;BME280;41589;51.196;7.074;2024-01-15T10:05:23;97485.28;;;3.59;82.94
19576;BME280;41589;51.196;7.074;2024-01-15T10:10:23;97486.97;;;3.56;83.05
19576;BME280;41589;51.196;7.074;2024-01-15T10:15:25;97489.78;;;3.65;83.44
19576;BME280;41589;51.196;7.074;2024-01-15T10:20:26;97483.63;;;3.70;82.47
19576;BME280;41589;51.196;7.074;2024-01-15T10:25:26;97482.38;;;3.71;83.17
19576;BME280;41589;51.196;7.074;2024-01-15T10:30:27;97475.47;;;3.76;82.54
19576;BME280;41589;51.196;7.074;2024-01-15T10:35:32;97490.00;;;3.80;82.85
19576;BME280;41589;51.196;7.074;2024-01-15T10:40:32;97496.97;;;3.75;82.25
19576;BME280;41589;51.196;7.074;2024-01-15T10:45:33;97483.03;;;3.75;83.32
19576;BME280;41589;51.196;7.074;2024-01-15T10:50:33;97483.81;;;3.76;82.31
19576;BME280;41589;51.196;7.074;2024-01-15T10:55:35;97491.97;;;3.70;82.55
19576;BME280;41589;51.196;7.074;2024-01-15T11:00:36;97480.22;;;3.66;82.23
19576;BME280;41589;51.196;7.074;2024-01-15T11:05:44;97489.78;;;3.65;82.73
19576;BME280;41589;51.196;7.074;2024-01-15T11:10:46;97496.19;;;3.75;83.40
19576;BME280;41589;51.196;7.074;2024-01-15T11:15:57;97490.47;;;3.78;82.75
19576;BME280;41589;51.196;7.074;2024-01-15T11:41:48;97487.59;;;3.60;81.90
19576;BME280;41589;51.196;7.074;2024-01-15T11:47:30;97489.59;;;3.60;82.60
19576;BME280;41589;51.196;7.074;2024-01-15T11:52:38;97484.50;;;3.58;82.62
19576;BME280;41589;51.196;7.074;2024-01-15T11:57:44;97485.00;;;3.66;82.54
19576;BME280;41589;51.196;7.074;2024-01-15T12:02:46;97484.09;;;3.69;82.95
19576;BME280;41589;51.196;7.074;2024-01-15T12:07:48;97477.03;;;3.77;82.88
19576;BME280;41589;51.196;7.074;2024-01-15T12:13:00;97473.16;;;3.74;82.33
19576;BME280;41589;51.196;7.074;2024-01-15T12:18:02;97486.59;;;3.76;82.86
19576;BME280;41589;51.196;7.074;2024-01-15T12:23:03;97488.78;;;3.81;83.02
19576;BME280;41589;51.196;7.074;2024-01-15T12:28:04;97485.41;;;3.86;82.61
19576;BME280;41589;51.196;7.074;2024-01-15T12:33:05;97489.28;;;3.89;82.64
19576;BME280;41589;51.196;7.074;2024-01-15T12:38:06;97495.19;;;3.91;82.02
19576;BME280;41589;51.196;7.074;2024-01-15T12:43:06;97491.44;;;3.85;82.09
19576;BME280;41589;51.196;7.074;2024-01-15T12:48:07;97495.47;;;3.84;82.61
19576;BME280;41589;51.196;7.074;2024-01-15T12:53:07;97504.59;;;3.84;82.16
19576;BME280;41589;51.196;7.074;2024-01-15T12:58:08;97500.84;;;3.78;82.62
19576;BME280;41589;51.196;7.074;2024-01-15T13:03:09;97514.56;;;3.94;82.28
19576;BME280;41589;51.196;7.074;2024-01-15T13:08:09;97503.75;;;3.96;82.01
19576;BME280;41589;51.196;7.074;2024-01-15T13:13:10;97510.31;;;3.90;81.88
19576;BME280;41589;51.196;7.074;2024-01-15T13:18:10;97517.47;;;3.91;81.99
19576;BME280;41589;51.196;7.074;2024-01-15T13:23:11;97500.00;;;3.90;82.26
19576;BME280;41589;51.196;7.074;2024-01-15T13:28:11;97500.03;;;3.99;81.77
19576;BME280;41589;51.196;7.074;2024-01-15T13:33:13;97500.75;;;3.91;82.14
19576;BME280;41589;51.196;7.074;2024-01-15T13:38:13;97502.31;;;3.92;81.71
19576;BME280;41589;51.196;7.074;2024-01-15T13:43:14;97504.44;;;3.88;81.29
19576;BME280;41589;51.196;7.074;2024-01-15T13:48:14;97515.88;;;3.90;82.13
19576;BME280;41589;51.196;7.074;2024-01-15T13:53:14;97521.22;;;3.97;81.58
19576;BME280;41589;51.196;7.074;2024-01-15T13:58:15;97521.84;;;4.01;81.77
19576;BME280;41589;51.196;7.074;2024-01-15T14:03:16;97529.19;;;3.86;81.39
19576;BME280;41589;51.196;7.074;2024-01-15T14:08:16;97545.63;;;3.93;81.85
19576;BME280;41589;51.196;7.074;2024-01-15T14:13:17;97549.06;;;3.97;81.15
19576;BME280;41589;51.196;7.074;2024-01-15T14:18:17;97555.88;;;3.96;81.45
19576;BME280;41589;51.196;7.074;2024-01-15T14:23:17;97567.47;;;3.94;81.34
19576;BME280;41589;51.196;7.074;2024-01-15T14:28:18;97575.94;;;3.91;81.22
19576;BME280;41589;51.196;7.074;2024-01-15T14:33:18;97573.72;;;3.86;81.11
19576;BME280;41589;51.196;7.074;2024-01-15T14:38:18;97574.22;;;3.93;81.67
19576;BME280;41589;51.196;7.074;2024-01-15T14:43:19;97591.84;;;3.90;81.02
19576;BME280;41589;51.196;7.074;2024-01-15T14:48:20;97601.88;;;3.88;81.34
19576;BME280;41589;51.196;7.074;2024-01-15T14:53:20;97600.63;;;3.89;81.26
19576;BME280;41589;51.196;7.074;2024-01-15T14:58:21;97621.81;;;3.86;81.11
19576;BME280;41589;51.196;7.074;2024-01-15T15:03:21;97627.50;;;3.83;81.50
19576;BME280;41589;51.196;7.074;2024-01-15T15:08:22;97628.38;;;3.92;81.09
19576;BME280;41589;51.196;7.074;2024-01-15T15:13:22;97642.28;;;3.92;81.19
19576;BME280;41589;51.196;7.074;2024-01-15T15:18:26;97649.09;;;3.91;81.29
19576;BME280;41589;51.196;7.074;2024-01-15T15:23:26;97648.19;;;3.94;81.25
19576;BME280;41589;51.196;7.074;2024-01-15T15:28:27;97666.09;;;3.93;80.85
19576;BME280;41589;51.196;7.074;2024-01-15T15:33:27;97688.63;;;3.86;80.41
19576;BME280;41589;51.196;7.074;2024-01-15T15:38:28;97691.97;;;3.81;80.30
19576;BME280;41589;51.196;7.074;2024-01-15T15:43:29;97688.63;;;3.86;81.13
19576;BME280;41589;51.196;7.074;2024-01-15T15:48:31;97697.97;;;3.92;80.69
19576;BME280;41589;51.196;7.074;2024-01-15T15:53:31;97699.41;;;3.97;81.13
19576;BME280;41589;51.196;7.074;2024-01-15T15:58:31;97710.22;;;3.95;80.12
19576;BME280;41589;51.196;7.074;2024-01-15T16:03:32;97721.78;;;3.93;80.80
19576;BME280;41589;51.196;7.074;2024-01-15T16:08:32;97742.41;;;3.83;80.13
19576;BME280;41589;51.196;7.074;2024-01-15T16:13:33;97747.13;;;3.73;80.05
19576;BME280;41589;51.196;7.074;2024-01-15T16:18:34;97745.00;;;3.77;81.07
19576;BME280;41589;51.196;7.074;2024-01-15T16:23:34;97740.97;;;3.78;80.14
19576;BME280;41589;51.196;7.074;2024-01-15T16:28:34;97754.69;;;3.73;80.32
19576;BME280;41589;51.196;7.074;2024-01-15T16:33:37;97759.47;;;3.72;80.32
19576;BME280;41589;51.196;7.074;2024-01-15T16:38:38;97770.50;;;3.76;80.37
19576;BME280;41589;51.196;7.074;2024-01-15T16:43:38;97768.81;;;3.78;80.65
19576;BME280;41589;51.196;7.074;2024-01-15T16:48:38;97779.31;;;3.74;80.36
19576;BME280;41589;51.196;7.074;2024-01-15T16:53:39;97780.19;;;3.71;80.24
19576;BME280;41589;51.196;7.074;2024-01-15T16:58:39;97784.53;;;3.72;80.36
19576;BME280;41589;51.196;7.074;2024-01-15T17:03:40;97780.66;;;3.57;79.25
19576;BME280;41589;51.196;7.074;2024-01-15T17:08:40;97791.16;;;3.53;80.21
19576;BME280;41589;51.196;7.074;2024-01-15T17:13:41;97796.13;;;3.58;80.72
19576;BME280;41589;51.196;7.074;2024-01-15T17:18:43;97802.69;;;3.64;80.56
19576;BME280;41589;51.196;7.074;2024-01-15T17:23:43;97799.00;;;3.67;80.32
19576;BME280;41589;51.196;7.074;2024-01-15T17:28:44;97810.69;;;3.62;80.31
19576;BME280;41589;51.196;7.074;2024-01-15T17:33:45;97820.19;;;3.65;80.58
19576;BME280;41589;51.196;7.074;2024-01-15T17:38:45;97833.19;;;3.68;80.47
19576;BME280;41589;51.196;7.074;2024-01-15T17:43:46;97837.06;;;3.70;80.43
19576;BME280;41589;51.196;7.074;2024-01-15T17:48:47;97839.66;;;3.65;79.82
19576;BME280;41589;51.196;7.074;2024-01-15T17:53:48;97845.69;;;3.63;79.97
19576;BME280;41589;51.196;7.074;2024-01-15T17:58:48;97838.66;;;3.59;80.04
19576;BME280;41589;51.196;7.074;2024-01-15T18:03:50;97848.91;;;3.49;80.44
19576;BME280;41589;51.196;7.074;2024-01-15T18:08:51;97851.69;;;3.49;80.49
19576;BME280;41589;51.196;7.074;2024-01-15T18:13:51;97867.06;;;3.54;80.54
19576;BME280;41589;51.196;7.074;2024-01-15T18:18:51;97867.72;;;3.45;79.85
19576;BME280;41589;51.196;7.074;2024-01-15T18:23:52;97880.41;;;3.46;80.72
19576;BME280;41589;51.196;7.074;2024-01-15T18:28:52;97878.19;;;3.54;80.00
19576;BME280;41589;51.196;7.074;2024-01-15T18:33:53;97901.44;;;3.47;79.64
19576;BME280;41589;51.196;7.074;2024-01-15T18:38:53;97892.75;;;3.45;80.13
19576;BME280;41589;51.196;7.074;2024-01-15T18:43:53;97891.19;;;3.44;80.42
19576;BME280;41589;51.196;7.074;2024-01-15T18:48:54;97896.09;;;3.53;80.04
19576;BME280;41589;51.196;7.074;2024-01-15T18:53:55;97900.31;;;3.57;79.88
19576;BME280;41589;51.196;7.074;2024-01-15T18:58:57;97899.75;;;3.62;80.36
19576;BME280;41589;51.196;7.074;2024-01-15T19:03:58;97908.53;;;3.61;80.51
19576;BME280;41589;51.196;7.074;2024-01-15T19:08:58;97912.22;;;3.70;79.89
19576;BME280;41589;51.196;7.074;2024-01-15T19:13:59;97910.66;;;3.69;79.41
19576;BME280;41589;51.196;7.074;2024-01-15T19:18:59;97922.13;;;3.59;79.28
19576;BME280;41589;51.196;7.074;2024-01-15T19:24:00;97926.03;;;3.61;79.98
19576;BME280;41589;51.196;7.074;2024-01-15T19:29:02;97942.72;;;3.61;80.01
19576;BME280;41589;51.196;7.074;2024-01-15T19:34:03;97942.84;;;3.58;78.87
19576;BME280;41589;51.196;7.074;2024-01-15T19:39:04;97943.59;;;3.45;79.14
19576;BME280;41589;51.196;7.074;2024-01-15T19:44:04;97951.19;;;3.45;79.59
19576;BME280;41589;51.196;7.074;2024-01-15T19:49:09;97958.19;;;3.49;79.64
19576;BME280;41589;51.196;7.074;2024-01-15T19:54:09;97972.44;;;3.51;79.54
19576;BME280;41589;51.196;7.074;2024-01-15T19:59:09;97983.59;;;3.64;79.61
19576;BME280;41589;51.196;7.074;2024-01-15T20:04:10;97977.00;;;3.58;79.17
19576;BME280;41589;51.196;7.074;2024-01-15T20:09:10;97977.09;;;3.42;78.67
19576;BME280;41589;51.196;7.074;2024-01-15T20:14:11;97982.44;;;3.49;79.82
19576;BME280;41589;51.196;7.074;2024-01-15T20:19:11;97996.34;;;3.49;79.61
19576;BME280;41589;51.196;7.074;2024-01-15T20:24:11;97995.69;;;3.45;79.11
19576;BME280;41589;51.196;7.074;2024-01-15T20:29:13;97997.56;;;3.35;79.21
19576;BME280;41589;51.196;7.074;2024-01-15T20:34:13;98005.25;;;3.44;79.99
19576;BME280;41589;51.196;7.074;2024-01-15T20:39:14;98016.84;;;3.42;78.95
19576;BME280;41589;51.196;7.074;2024-01-15T20:44:15;98014.13;;;3.39;79.50
19576;BME280;41589;51.196;7.074;2024-01-15T20:49:15;98024.59;;;3.35;79.38
19576;BME280;41589;51.196;7.074;2024-01-15T20:54:15;98032.75;;;3.42;79.31
19576;BME280;41589;51.196;7.074;2024-01-15T20:59:16;98022.47;;;3.39;79.03
19576;BME280;41589;51.196;7.074;2024-01-15T21:04:16;98051.00;;;3.43;79.10
19576;BME280;41589;51.196;7.074;2024-01-15T21:09:17;98040.53;;;3.47;79.91
19576;BME280;41589;51.196;7.074;2024-01-15T21:14:17;98048.34;;;3.52;79.08
19576;BME280;41589;51.196;7.074;2024-01-15T21:19:18;98056.81;;;3.61;79.61
19576;BME280;41589;51.196;7.074;2024-01-15T21:24:18;98061.06;;;3.53;79.29
19576;BME280;41589;51.196;7.074;2024-01-15T21:29:23;98062.34;;;3.48;78.93
19576;BME280;41589;51.196;7.074;2024-01-15T21:34:23;98048.75;;;3.38;78.43
19576;BME280;41589;51.196;7.074;2024-01-15T21:39:25;98055.66;;;3.33;78.63
19576;BME280;41589;51.196;7.074;2024-01-15T21:44:25;98067.88;;;3.36;78.94
19576;BME280;41589;51.196;7.074;2024-01-15T21:49:25;98068.97;;;3.26;79.02
19576;BME280;41589;51.196;7.074;2024-01-15T21:54:26;98067.06;;;3.22;78.96
19576;BME280;41589;51.196;7.074;2024-01-15T21:59:26;98070.22;;;3.37;80.09
19576;BME280;41589;51.196;7.074;2024-01-15T22:04:26;98076.56;;;3.38;79.29
19576;BME280;41589;51.196;7.074;2024-01-15T22:09:27;98075.13;;;3.33;78.75
19576;BME280;41589;51.196;7.074;2024-01-15T22:14:27;98069.63;;;3.30;78.96
19576;BME280;41589;51.196;7.074;2024-01-15T22:19:28;98082.22;;;3.34;79.44
19576;BME280;41589;51.196;7.074;2024-01-15T22:24:28;98087.34;;;3.36;78.91
19576;BME280;41589;51.196;7.074;2024-01-15T22:29:29;98085.09;;;3.31;79.90
19576;BME280;41589;51.196;7.074;2024-01-15T22:34:29;98093.59;;;3.40;79.61
19576;BME280;41589;51.196;7.074;2024-01-15T22:39:29;98105.72;;;3.33;79.12
19576;BME280;41589;51.196;7.074;2024-01-15T22:44:29;98111.28;;;3.33;79.43
19576;BME280;41589;51.196;7.074;2024-01-15T22:49:30;98107.16;;;3.38;80.14
19576;BME280;41589;51.196;7.074;2024-01-15T22:54:30;98111.84;;;3.41;79.32
19576;BME280;41589;51.196;7.074;2024-01-15T22:59:31;98096.75;;;3.42;79.70
19576;BME280;41589;51.196;7.074;2024-01-15T23:04:31;98107.75;;;3.45;79.46
19576;BME280;41589;51.196;7.074;2024-01-15T23:09:32;98106.97;;;3.45;78.79
19576;BME280;41589;51.196;7.074;2024-01-15T23:14:34;98132.19;;;3.38;79.27
19576;BME280;41589;51.196;7.074;2024-01-15T23:19:34;98134.34;;;3.46;79.19
19576;BME280;41589;51.196;7.074;2024-01-15T23:24:35;98133.53;;;3.33;79.18
19576;BME280;41589;51.196;7.074;2024-01-15T23:29:35;98143.00;;;3.36;79.66
19576;BME280;41589;51.196;7.074;2024-01-15T23:34:35;98164.97;;;3.30;79.44
19576;BME280;41589;51.196;7.074;2024-01-15T23:39:36;98162.13;;;3.34;79.86
19576;BME280;41589;51.196;7.074;2024-01-15T23:44:37;98158.34;;;3.40;79.86
19576;BME280;41589;51.196;7.074;2024-01-15T23:49:37;98157.94;;;3.42;79.80
19576;BME280;41589;51.196;7.074;2024-01-15T23:54:38;98169.56;;;3.53;79.82
19576;BME280;41589;51.196;7.074;2024-01-15T23:59:38;98158.44;;;3.53;79.01
